Freeport, Ohio
Current Conditions -  °F | °C
As of 4:53 PM on Thursday 27 Nov 2014 (Local Time) from KPHD Reporting Station
Light Snow Light Snow  
Wind Chill: 26°   Ceiling: 3100
Heat Index: 32°   Visibility: 4mi
Dew Point: 24°   Wind: 6mph
Humidity: 73%   Direction: 250°WSW
Pressure: 30.2"   Gusts: NA
Location:  40.21°N, 81.27°W
Report Text: KPHD 272153Z AUTO 25005KT 4SM -SN OVC031 00/M04 A3020 RMK AO2 SNB30 SLP237 P0000 T00001044
Loading
Personal Weather Stations






























Interactive Weather Map New forecast layout! Learn more

10-Day Weather Forecast

Advertisements
Track Severe Weather on mobile